sensor_id;sensor_type;location;lat;lon;timestamp;temperature;humidity
20315;DHT22;10315;50.958;13.080;2023-05-10T00:00:31;11.10;99.90
20315;DHT22;10315;50.958;13.080;2023-05-10T00:10:33;11.00;99.90
20315;DHT22;10315;50.958;13.080;2023-05-10T00:20:36;10.90;99.90
20315;DHT22;10315;50.958;13.080;2023-05-10T00:30:37;10.80;99.90
20315;DHT22;10315;50.958;13.080;2023-05-10T00:40:40;10.70;99.90
20315;DHT22;10315;50.958;13.080;2023-05-10T00:50:42;10.60;99.90
20315;DHT22;10315;50.958;13.080;2023-05-10T01:00:46;10.40;99.90
20315;DHT22;10315;50.958;13.080;2023-05-10T01:10:48;10.40;99.90
20315;DHT22;10315;50.958;13.080;2023-05-10T01:21:02;10.40;99.90
20315;DHT22;10315;50.958;13.080;2023-05-10T01:31:30;10.40;99.90
20315;DHT22;10315;50.958;13.080;2023-05-10T01:41:41;10.40;99.90
20315;DHT22;10315;50.958;13.080;2023-05-10T01:51:50;10.20;99.90
20315;DHT22;10315;50.958;13.080;2023-05-10T02:01:57;10.30;99.90
20315;DHT22;10315;50.958;13.080;2023-05-10T02:12:02;10.20;99.90
20315;DHT22;10315;50.958;13.080;2023-05-10T02:22:07;10.00;99.90
20315;DHT22;10315;50.958;13.080;2023-05-10T02:32:10;10.00;99.90
20315;DHT22;10315;50.958;13.080;2023-05-10T02:42:17;10.10;99.90
20315;DHT22;10315;50.958;13.080;2023-05-10T02:52:24;9.90;99.90
20315;DHT22;10315;50.958;13.080;2023-05-10T03:02:29;9.90;99.90
20315;DHT22;10315;50.958;13.080;2023-05-10T03:12:44;9.80;99.90
20315;DHT22;10315;50.958;13.080;2023-05-10T03:22:58;9.70;99.90
20315;DHT22;10315;50.958;13.080;2023-05-10T03:33:04;9.80;99.90
20315;DHT22;10315;50.958;13.080;2023-05-10T03:43:07;9.70;99.90
20315;DHT22;10315;50.958;13.080;2023-05-10T03:53:09;9.70;99.90
20315;DHT22;10315;50.958;13.080;2023-05-10T04:03:12;9.40;99.90
20315;DHT22;10315;50.958;13.080;2023-05-10T04:13:14;9.50;99.90
20315;DHT22;10315;50.958;13.080;2023-05-10T04:23:17;9.40;99.90
20315;DHT22;10315;50.958;13.080;2023-05-10T04:33:19;9.50;99.90
20315;DHT22;10315;50.958;13.080;2023-05-10T04:43:21;9.90;99.90
20315;DHT22;10315;50.958;13.080;2023-05-10T04:53:23;10.20;99.90
20315;DHT22;10315;50.958;13.080;2023-05-10T05:03:39;10.40;99.90
20315;DHT22;10315;50.958;13.080;2023-05-10T05:13:41;10.60;99.90
20315;DHT22;10315;50.958;13.080;2023-05-10T05:23:46;10.80;99.90
20315;DHT22;10315;50.958;13.080;2023-05-10T05:33:48;11.00;99.90
20315;DHT22;10315;50.958;13.080;2023-05-10T05:43:51;11.20;99.90
20315;DHT22;10315;50.958;13.080;2023-05-10T05:53:52;11.60;99.90
20315;DHT22;10315;50.958;13.080;2023-05-10T06:03:55;12.20;99.90
20315;DHT22;10315;50.958;13.080;2023-05-10T06:13:57;12.70;99.90
20315;DHT22;10315;50.958;13.080;2023-05-10T06:24:00;13.50;99.90
20315;DHT22;10315;50.958;13.080;2023-05-10T06:34:01;14.60;99.90
20315;DHT22;10315;50.958;13.080;2023-05-10T06:44:04;17.70;99.90
20315;DHT22;10315;50.958;13.080;2023-05-10T06:54:06;21.00;99.90
20315;DHT22;10315;50.958;13.080;2023-05-10T07:04:09;23.40;98.90
20315;DHT22;10315;50.958;13.080;2023-05-10T07:14:10;22.10;97.10
20315;DHT22;10315;50.958;13.080;2023-05-10T07:24:13;25.00;93.80
20315;DHT22;10315;50.958;13.080;2023-05-10T07:34:15;23.00;92.00
20315;DHT22;10315;50.958;13.080;2023-05-10T07:44:18;24.80;91.30
20315;DHT22;10315;50.958;13.080;2023-05-10T07:54:20;26.00;86.80
20315;DHT22;10315;50.958;13.080;2023-05-10T08:04:26;24.30;88.00
20315;DHT22;10315;50.958;13.080;2023-05-10T08:14:28;24.80;89.40
20315;DHT22;10315;50.958;13.080;2023-05-10T08:24:31;28.10;78.70
20315;DHT22;10315;50.958;13.080;2023-05-10T08:34:35;28.70;78.90
20315;DHT22;10315;50.958;13.080;2023-05-10T08:44:37;32.10;70.30
20315;DHT22;10315;50.958;13.080;2023-05-10T08:54:39;32.30;66.60
20315;DHT22;10315;50.958;13.080;2023-05-10T09:04:42;31.70;64.40
20315;DHT22;10315;50.958;13.080;2023-05-10T09:14:44;29.50;67.40
20315;DHT22;10315;50.958;13.080;2023-05-10T09:24:48;28.80;67.50
20315;DHT22;10315;50.958;13.080;2023-05-10T09:34:50;27.80;70.80
20315;DHT22;10315;50.958;13.080;2023-05-10T09:44:53;26.20;74.20
20315;DHT22;10315;50.958;13.080;2023-05-10T09:54:55;23.80;79.90
20315;DHT22;10315;50.958;13.080;2023-05-10T10:04:58;23.20;80.10
20315;DHT22;10315;50.958;13.080;2023-05-10T10:15:02;21.70;84.00
20315;DHT22;10315;50.958;13.080;2023-05-10T10:25:07;19.70;90.00
20315;DHT22;10315;50.958;13.080;2023-05-10T10:35:09;18.50;93.10
20315;DHT22;10315;50.958;13.080;2023-05-10T10:45:14;19.50;92.90
20315;DHT22;10315;50.958;13.080;2023-05-10T10:55:17;19.20;93.50
20315;DHT22;10315;50.958;13.080;2023-05-10T11:15:48;18.50;98.40
20315;DHT22;10315;50.958;13.080;2023-05-10T11:25:52;18.30;99.50
20315;DHT22;10315;50.958;13.080;2023-05-10T11:35:54;17.80;99.90
20315;DHT22;10315;50.958;13.080;2023-05-10T11:45:57;17.50;99.90
20315;DHT22;10315;50.958;13.080;2023-05-10T11:56:03;17.40;99.90
20315;DHT22;10315;50.958;13.080;2023-05-10T12:06:07;17.40;99.90
20315;DHT22;10315;50.958;13.080;2023-05-10T12:16:16;17.50;99.90
20315;DHT22;10315;50.958;13.080;2023-05-10T12:26:21;17.00;99.90
20315;DHT22;10315;50.958;13.080;2023-05-10T12:36:23;16.50;99.90
20315;DHT22;10315;50.958;13.080;2023-05-10T12:46:27;15.60;99.90
20315;DHT22;10315;50.958;13.080;2023-05-10T12:56:28;15.00;99.90
20315;DHT22;10315;50.958;13.080;2023-05-10T13:06:31;14.90;99.90
20315;DHT22;10315;50.958;13.080;2023-05-10T13:16:33;14.90;99.90
20315;DHT22;10315;50.958;13.080;2023-05-10T13:26:36;14.30;99.90
20315;DHT22;10315;50.958;13.080;2023-05-10T13:36:37;14.20;99.90
20315;DHT22;10315;50.958;13.080;2023-05-10T13:46:41;13.80;99.90
20315;DHT22;10315;50.958;13.080;2023-05-10T13:56:43;13.50;99.90
20315;DHT22;10315;50.958;13.080;2023-05-10T14:06:46;13.40;99.90
20315;DHT22;10315;50.958;13.080;2023-05-10T14:16:48;13.70;99.90
20315;DHT22;10315;50.958;13.080;2023-05-10T14:26:51;13.70;99.90
20315;DHT22;10315;50.958;13.080;2023-05-10T14:36:54;14.00;99.90
20315;DHT22;10315;50.958;13.080;2023-05-10T14:46:56;13.90;99.90
20315;DHT22;10315;50.958;13.080;2023-05-10T14:57:01;13.80;99.90
20315;DHT22;10315;50.958;13.080;2023-05-10T15:07:04;13.90;99.90
20315;DHT22;10315;50.958;13.080;2023-05-10T15:17:06;13.80;99.90
20315;DHT22;10315;50.958;13.080;2023-05-10T15:27:09;13.90;99.90
20315;DHT22;10315;50.958;13.080;2023-05-10T15:37:11;13.90;99.90
20315;DHT22;10315;50.958;13.080;2023-05-10T15:47:14;13.90;99.90
20315;DHT22;10315;50.958;13.080;2023-05-10T15:57:16;13.80;99.90
20315;DHT22;10315;50.958;13.080;2023-05-10T16:07:19;13.80;99.90
20315;DHT22;10315;50.958;13.080;2023-05-10T16:17:20;13.90;99.90
20315;DHT22;10315;50.958;13.080;2023-05-10T16:27:23;13.90;99.90
20315;DHT22;10315;50.958;13.080;2023-05-10T16:37:28;13.90;99.90
20315;DHT22;10315;50.958;13.080;2023-05-10T16:47:30;13.90;99.90
20315;DHT22;10315;50.958;13.080;2023-05-10T16:57:32;14.10;99.90
20315;DHT22;10315;50.958;13.080;2023-05-10T17:07:35;14.00;99.90
20315;DHT22;10315;50.958;13.080;2023-05-10T17:17:37;13.90;99.90
20315;DHT22;10315;50.958;13.080;2023-05-10T17:27:40;13.90;99.90
20315;DHT22;10315;50.958;13.080;2023-05-10T17:37:42;13.90;99.90
20315;DHT22;10315;50.958;13.080;2023-05-10T17:47:45;13.70;99.90
20315;DHT22;10315;50.958;13.080;2023-05-10T17:57:47;13.60;99.90
20315;DHT22;10315;50.958;13.080;2023-05-10T18:07:49;13.70;99.90
20315;DHT22;10315;50.958;13.080;2023-05-10T18:17:51;13.60;99.90
20315;DHT22;10315;50.958;13.080;2023-05-10T18:27:54;13.70;99.90
20315;DHT22;10315;50.958;13.080;2023-05-10T18:37:56;13.60;99.90
20315;DHT22;10315;50.958;13.080;2023-05-10T18:47:59;13.50;99.90
20315;DHT22;10315;50.958;13.080;2023-05-10T18:58:01;13.20;99.90
20315;DHT22;10315;50.958;13.080;2023-05-10T19:08:04;13.00;99.90
20315;DHT22;10315;50.958;13.080;2023-05-10T19:18:05;12.90;99.90
20315;DHT22;10315;50.958;13.080;2023-05-10T19:28:08;12.80;99.90
20315;DHT22;10315;50.958;13.080;2023-05-10T19:38:10;12.80;99.90
20315;DHT22;10315;50.958;13.080;2023-05-10T19:48:13;12.80;99.90
20315;DHT22;10315;50.958;13.080;2023-05-10T19:58:14;12.60;99.90
20315;DHT22;10315;50.958;13.080;2023-05-10T20:08:18;12.50;99.90
20315;DHT22;10315;50.958;13.080;2023-05-10T20:18:20;12.40;99.90
20315;DHT22;10315;50.958;13.080;2023-05-10T20:28:23;12.40;99.90
20315;DHT22;10315;50.958;13.080;2023-05-10T20:38:25;12.40;99.90
20315;DHT22;10315;50.958;13.080;2023-05-10T20:48:32;12.30;99.90
20315;DHT22;10315;50.958;13.080;2023-05-10T20:58:33;12.20;99.90
20315;DHT22;10315;50.958;13.080;2023-05-10T21:08:36;12.10;99.90
20315;DHT22;10315;50.958;13.080;2023-05-10T21:18:38;12.10;99.90
20315;DHT22;10315;50.958;13.080;2023-05-10T21:28:44;12.00;99.90
20315;DHT22;10315;50.958;13.080;2023-05-10T21:38:45;12.00;99.90
20315;DHT22;10315;50.958;13.080;2023-05-10T21:48:50;12.00;99.90
20315;DHT22;10315;50.958;13.080;2023-05-10T21:58:52;12.00;99.90
20315;DHT22;10315;50.958;13.080;2023-05-10T22:08:55;12.00;99.90
20315;DHT22;10315;50.958;13.080;2023-05-10T22:18:57;12.00;99.90
20315;DHT22;10315;50.958;13.080;2023-05-10T22:28:59;12.00;99.90
20315;DHT22;10315;50.958;13.080;2023-05-10T22:39:01;11.90;99.90
20315;DHT22;10315;50.958;13.080;2023-05-10T22:49:04;11.90;99.90
20315;DHT22;10315;50.958;13.080;2023-05-10T22:59:06;11.90;99.90
20315;DHT22;10315;50.958;13.080;2023-05-10T23:09:09;11.90;99.90
20315;DHT22;10315;50.958;13.080;2023-05-10T23:19:10;11.80;99.90
20315;DHT22;10315;50.958;13.080;2023-05-10T23:29:13;11.80;99.90
20315;DHT22;10315;50.958;13.080;2023-05-10T23:39:15;11.80;99.90
20315;DHT22;10315;50.958;13.080;2023-05-10T23:49:18;11.70;99.90
20315;DHT22;10315;50.958;13.080;2023-05-10T23:59:19;11.80;99.90
